Wichita, KS

16:03 CDT le 23 août 2016 (GMT -0500)
Wichita Eisenhower National Airport | | Change Station

Alt. 1332 ft 37.65 °N, 97.43 °W | Updated 10 minutes ago

Scattered Clouds
Nuages épars
88 ° F
Paraît 94 ° F
N
20
Vent Variable Vent de Sud
Gusts 34 mph

Aujourd'hui
Haut(e) -- | Bas -- ° F
--% Risque de précip.
Hier
Haut(e) -- | Bas -- ° F
Precip. -- pouce
Pression 29.86 pouce
Visibilité 10.0 Miles terrestres
Nuages Nuages épars 25000 ft
indice de chaleur 94 ° F
Point de rosée 71 ° F
Humidité 57%
Précipitations 0.00 pouce
Profondeur de la couche neigeuse Non disponible.
6:52 AM 8:10 PM
Lune gibbeuse décroissante, 64% visible
METAR KICT 232053Z COR 17017G30KT 10SM SCT45 SCT250 31/22 A2990 RMK AO2 PK WND 18033/2029 SLP109 T03110217 58016
Pression 29.86 pouce
Visibilité 10.0 Miles terrestres
Nuages Nuages épars 25000 ft
indice de chaleur 94 ° F
Point de rosée 71 ° F
Humidité 57%
Précipitations 0.00 pouce
Profondeur de la couche neigeuse Non disponible.
6:52 AM 8:10 PM
Lune gibbeuse décroissante, 64% visible
METAR KICT 232053Z COR 17017G30KT 10SM SCT45 SCT250 31/22 A2990 RMK AO2 PK WND 18033/2029 SLP109 T03110217 58016

10-Day Weather Forecast

Almanac

Astronomie

Aug. 23, 2016 Lever Coucher
Temps réel
Crépuscule civil
Crépuscule nautique
Crépuscule astronomique
Lune
Durée de lumière visible
Longueur du jour
Tomorrow will be .
, % of the Moon is Illuminated

Extrêmes aujourd'hui

State Highs State Lows

Community

WunderPhotos

Upload Photos

1,934,455 Photos téléchargées !

WunderBlog® & News

Nearby

Qualité de l'air

  Qualité de l'air Indice de la qualité de l'air Polluant
Not available.

Épaisseur de neige

Station Depth Altitude

Activité sismique

Ville Distance Mag. Time & Date
Minimum magnitude displayed is 2.5.

Températures des eaux côtières

Lieu Température

Stations

Stations météo à proximité

Emplacement de la station Température Refroidissement éolien Point de rosée Humidité Vent Precip. Alt. Mise à jour Type
                   

Watches & Warnings

There are currently no watches in effect.